sensor_id;sensor_type;location;lat;lon;timestamp;P1;durP1;ratioP1;P2;durP2;ratioP2
65009;SDS011;51556;50.002;22.014;2022-08-19T00:02:24;14.10;;;9.80;;
65009;SDS011;51556;50.002;22.014;2022-08-19T00:04:50;18.80;;;10.20;;
65009;SDS011;51556;50.002;22.014;2022-08-19T00:07:20;18.50;;;10.40;;
65009;SDS011;51556;50.002;22.014;2022-08-19T00:09:46;19.90;;;10.50;;
65009;SDS011;51556;50.002;22.014;2022-08-19T00:12:12;14.90;;;10.10;;
65009;SDS011;51556;50.002;22.014;2022-08-19T00:14:38;18.20;;;9.70;;
65009;SDS011;51556;50.002;22.014;2022-08-19T00:17:06;15.80;;;9.20;;
65009;SDS011;51556;50.002;22.014;2022-08-19T00:19:33;11.90;;;8.70;;
65009;SDS011;51556;50.002;22.014;2022-08-19T00:22:00;18.90;;;9.60;;
65009;SDS011;51556;50.002;22.014;2022-08-19T00:24:27;12.20;;;8.80;;
65009;SDS011;51556;50.002;22.014;2022-08-19T00:26:54;17.90;;;9.70;;
65009;SDS011;51556;50.002;22.014;2022-08-19T00:29:22;13.20;;;9.70;;
65009;SDS011;51556;50.002;22.014;2022-08-19T00:31:49;14.10;;;10.20;;
65009;SDS011;51556;50.002;22.014;2022-08-19T00:34:19;14.30;;;9.80;;
65009;SDS011;51556;50.002;22.014;2022-08-19T00:36:46;13.60;;;9.60;;
65009;SDS011;51556;50.002;22.014;2022-08-19T00:39:13;16.10;;;10.10;;
65009;SDS011;51556;50.002;22.014;2022-08-19T00:41:40;15.60;;;9.70;;
65009;SDS011;51556;50.002;22.014;2022-08-19T00:44:09;14.30;;;10.10;;
65009;SDS011;51556;50.002;22.014;2022-08-19T00:46:36;14.40;;;9.10;;
65009;SDS011;51556;50.002;22.014;2022-08-19T00:49:09;15.00;;;9.80;;
65009;SDS011;51556;50.002;22.014;2022-08-19T00:52:00;14.90;;;9.50;;
65009;SDS011;51556;50.002;22.014;2022-08-19T00:54:32;20.50;;;9.50;;
65009;SDS011;51556;50.002;22.014;2022-08-19T00:56:58;14.10;;;9.30;;
65009;SDS011;51556;50.002;22.014;2022-08-19T00:59:25;15.10;;;9.30;;
65009;SDS011;51556;50.002;22.014;2022-08-19T01:01:53;14.20;;;9.40;;
65009;SDS011;51556;50.002;22.014;2022-08-19T01:04:19;11.30;;;9.40;;
65009;SDS011;51556;50.002;22.014;2022-08-19T01:06:45;15.00;;;9.60;;
65009;SDS011;51556;50.002;22.014;2022-08-19T01:09:10;14.80;;;9.80;;
65009;SDS011;51556;50.002;22.014;2022-08-19T01:11:38;11.60;;;9.50;;
65009;SDS011;51556;50.002;22.014;2022-08-19T01:14:08;15.60;;;9.00;;
65009;SDS011;51556;50.002;22.014;2022-08-19T01:16:34;13.60;;;9.50;;
65009;SDS011;51556;50.002;22.014;2022-08-19T01:19:02;14.10;;;9.10;;
65009;SDS011;51556;50.002;22.014;2022-08-19T01:21:40;11.40;;;8.80;;
65009;SDS011;51556;50.002;22.014;2022-08-19T01:24:11;12.70;;;8.60;;
65009;SDS011;51556;50.002;22.014;2022-08-19T01:26:40;14.40;;;9.90;;
65009;SDS011;51556;50.002;22.014;2022-08-19T01:29:08;11.00;;;9.30;;
65009;SDS011;51556;50.002;22.014;2022-08-19T01:31:34;19.50;;;9.80;;
65009;SDS011;51556;50.002;22.014;2022-08-19T01:34:00;14.20;;;9.50;;
65009;SDS011;51556;50.002;22.014;2022-08-19T01:39:02;12.80;;;8.90;;
65009;SDS011;51556;50.002;22.014;2022-08-19T01:41:31;11.80;;;8.80;;
65009;SDS011;51556;50.002;22.014;2022-08-19T01:43:57;15.30;;;9.00;;
65009;SDS011;51556;50.002;22.014;2022-08-19T01:46:22;16.10;;;9.70;;
65009;SDS011;51556;50.002;22.014;2022-08-19T01:48:48;12.50;;;9.70;;
65009;SDS011;51556;50.002;22.014;2022-08-19T01:51:14;12.00;;;8.70;;
65009;SDS011;51556;50.002;22.014;2022-08-19T01:53:40;10.60;;;8.50;;
65009;SDS011;51556;50.002;22.014;2022-08-19T01:56:06;14.70;;;9.20;;
65009;SDS011;51556;50.002;22.014;2022-08-19T01:58:41;14.40;;;8.50;;
65009;SDS011;51556;50.002;22.014;2022-08-19T02:01:16;12.30;;;8.40;;
65009;SDS011;51556;50.002;22.014;2022-08-19T02:03:42;13.50;;;8.70;;
65009;SDS011;51556;50.002;22.014;2022-08-19T02:06:08;10.90;;;8.50;;
65009;SDS011;51556;50.002;22.014;2022-08-19T02:08:36;17.30;;;8.90;;
65009;SDS011;51556;50.002;22.014;2022-08-19T02:11:03;14.80;;;9.10;;
65009;SDS011;51556;50.002;22.014;2022-08-19T02:13:29;15.00;;;8.60;;
65009;SDS011;51556;50.002;22.014;2022-08-19T02:15:55;14.80;;;9.30;;
65009;SDS011;51556;50.002;22.014;2022-08-19T02:18:21;13.10;;;9.60;;
65009;SDS011;51556;50.002;22.014;2022-08-19T02:20:47;12.50;;;8.90;;
65009;SDS011;51556;50.002;22.014;2022-08-19T02:23:13;12.80;;;9.20;;
65009;SDS011;51556;50.002;22.014;2022-08-19T02:25:41;12.20;;;8.90;;
65009;SDS011;51556;50.002;22.014;2022-08-19T02:28:09;10.10;;;8.70;;
65009;SDS011;51556;50.002;22.014;2022-08-19T02:30:36;11.00;;;8.90;;
65009;SDS011;51556;50.002;22.014;2022-08-19T02:33:03;15.10;;;8.70;;
65009;SDS011;51556;50.002;22.014;2022-08-19T02:35:29;11.90;;;9.00;;
65009;SDS011;51556;50.002;22.014;2022-08-19T02:37:55;11.10;;;8.80;;
65009;SDS011;51556;50.002;22.014;2022-08-19T02:40:39;11.20;;;8.20;;
65009;SDS011;51556;50.002;22.014;2022-08-19T02:43:06;11.10;;;8.80;;
65009;SDS011;51556;50.002;22.014;2022-08-19T02:45:34;11.50;;;8.70;;
65009;SDS011;51556;50.002;22.014;2022-08-19T02:48:01;12.60;;;9.10;;
65009;SDS011;51556;50.002;22.014;2022-08-19T02:50:27;10.30;;;8.40;;
65009;SDS011;51556;50.002;22.014;2022-08-19T02:52:52;14.20;;;8.20;;
65009;SDS011;51556;50.002;22.014;2022-08-19T02:55:18;12.90;;;8.30;;
65009;SDS011;51556;50.002;22.014;2022-08-19T02:57:43;9.70;;;7.90;;
65009;SDS011;51556;50.002;22.014;2022-08-19T03:00:09;10.80;;;7.90;;
65009;SDS011;51556;50.002;22.014;2022-08-19T03:02:38;11.80;;;8.30;;
65009;SDS011;51556;50.002;22.014;2022-08-19T03:05:05;10.20;;;7.60;;
65009;SDS011;51556;50.002;22.014;2022-08-19T03:07:34;11.70;;;8.10;;
65009;SDS011;51556;50.002;22.014;2022-08-19T03:10:00;14.10;;;8.10;;
65009;SDS011;51556;50.002;22.014;2022-08-19T03:12:26;12.30;;;8.80;;
65009;SDS011;51556;50.002;22.014;2022-08-19T03:14:52;12.10;;;7.80;;
65009;SDS011;51556;50.002;22.014;2022-08-19T03:17:18;11.50;;;8.30;;
65009;SDS011;51556;50.002;22.014;2022-08-19T03:19:44;11.20;;;8.50;;
65009;SDS011;51556;50.002;22.014;2022-08-19T03:22:09;15.00;;;9.20;;
65009;SDS011;51556;50.002;22.014;2022-08-19T03:24:35;10.80;;;7.50;;
65009;SDS011;51556;50.002;22.014;2022-08-19T03:27:01;13.10;;;7.90;;
65009;SDS011;51556;50.002;22.014;2022-08-19T03:29:30;15.80;;;8.80;;
65009;SDS011;51556;50.002;22.014;2022-08-19T03:31:57;12.90;;;8.30;;
65009;SDS011;51556;50.002;22.014;2022-08-19T03:34:26;12.70;;;8.60;;
65009;SDS011;51556;50.002;22.014;2022-08-19T03:36:55;14.10;;;9.10;;
65009;SDS011;51556;50.002;22.014;2022-08-19T03:39:23;12.30;;;8.60;;
65009;SDS011;51556;50.002;22.014;2022-08-19T03:41:50;12.60;;;8.30;;
65009;SDS011;51556;50.002;22.014;2022-08-19T03:44:18;12.80;;;8.90;;
65009;SDS011;51556;50.002;22.014;2022-08-19T03:46:51;17.70;;;8.80;;
65009;SDS011;51556;50.002;22.014;2022-08-19T03:49:19;12.70;;;8.90;;
65009;SDS011;51556;50.002;22.014;2022-08-19T03:51:46;12.30;;;9.00;;
65009;SDS011;51556;50.002;22.014;2022-08-19T03:54:13;17.50;;;9.60;;
65009;SDS011;51556;50.002;22.014;2022-08-19T03:56:41;14.20;;;9.00;;
65009;SDS011;51556;50.002;22.014;2022-08-19T03:59:10;12.60;;;8.60;;
65009;SDS011;51556;50.002;22.014;2022-08-19T04:01:38;12.80;;;8.60;;
65009;SDS011;51556;50.002;22.014;2022-08-19T04:04:04;12.80;;;8.60;;
65009;SDS011;51556;50.002;22.014;2022-08-19T04:06:34;12.50;;;8.20;;
65009;SDS011;51556;50.002;22.014;2022-08-19T04:09:02;12.40;;;8.30;;
65009;SDS011;51556;50.002;22.014;2022-08-19T04:11:30;15.00;;;8.50;;
65009;SDS011;51556;50.002;22.014;2022-08-19T04:13:59;13.50;;;8.70;;
65009;SDS011;51556;50.002;22.014;2022-08-19T04:16:25;12.80;;;8.80;;
65009;SDS011;51556;50.002;22.014;2022-08-19T04:18:56;12.10;;;8.70;;
65009;SDS011;51556;50.002;22.014;2022-08-19T04:21:25;15.00;;;9.00;;
65009;SDS011;51556;50.002;22.014;2022-08-19T04:23:53;13.30;;;8.80;;
65009;SDS011;51556;50.002;22.014;2022-08-19T04:26:21;13.10;;;8.40;;
65009;SDS011;51556;50.002;22.014;2022-08-19T04:28:49;15.30;;;8.40;;
65009;SDS011;51556;50.002;22.014;2022-08-19T04:31:23;12.70;;;7.90;;
65009;SDS011;51556;50.002;22.014;2022-08-19T04:33:54;15.00;;;9.40;;
65009;SDS011;51556;50.002;22.014;2022-08-19T04:36:23;20.70;;;9.00;;
65009;SDS011;51556;50.002;22.014;2022-08-19T04:38:52;16.30;;;9.60;;
65009;SDS011;51556;50.002;22.014;2022-08-19T04:41:19;16.30;;;8.80;;
65009;SDS011;51556;50.002;22.014;2022-08-19T04:44:03;19.90;;;8.80;;
65009;SDS011;51556;50.002;22.014;2022-08-19T04:46:29;14.50;;;9.50;;
65009;SDS011;51556;50.002;22.014;2022-08-19T04:48:59;12.90;;;8.70;;
65009;SDS011;51556;50.002;22.014;2022-08-19T04:51:27;17.00;;;10.20;;
65009;SDS011;51556;50.002;22.014;2022-08-19T04:53:56;15.30;;;9.00;;
65009;SDS011;51556;50.002;22.014;2022-08-19T04:56:22;15.60;;;8.90;;
65009;SDS011;51556;50.002;22.014;2022-08-19T04:58:51;13.50;;;8.40;;
65009;SDS011;51556;50.002;22.014;2022-08-19T05:01:19;10.50;;;8.50;;
65009;SDS011;51556;50.002;22.014;2022-08-19T05:03:47;14.20;;;8.80;;
65009;SDS011;51556;50.002;22.014;2022-08-19T05:06:14;16.00;;;9.00;;
65009;SDS011;51556;50.002;22.014;2022-08-19T05:08:43;14.40;;;8.90;;
65009;SDS011;51556;50.002;22.014;2022-08-19T05:11:10;17.60;;;9.50;;
65009;SDS011;51556;50.002;22.014;2022-08-19T05:13:38;17.70;;;8.90;;
65009;SDS011;51556;50.002;22.014;2022-08-19T05:16:04;15.60;;;9.50;;
65009;SDS011;51556;50.002;22.014;2022-08-19T05:18:30;21.90;;;9.40;;
65009;SDS011;51556;50.002;22.014;2022-08-19T05:21:16;16.20;;;8.90;;
65009;SDS011;51556;50.002;22.014;2022-08-19T05:24:02;13.70;;;9.30;;
65009;SDS011;51556;50.002;22.014;2022-08-19T05:26:31;14.90;;;9.00;;
65009;SDS011;51556;50.002;22.014;2022-08-19T05:28:56;14.40;;;10.60;;
65009;SDS011;51556;50.002;22.014;2022-08-19T05:31:22;14.40;;;10.40;;
65009;SDS011;51556;50.002;22.014;2022-08-19T05:33:47;13.00;;;9.10;;
65009;SDS011;51556;50.002;22.014;2022-08-19T05:36:14;17.60;;;10.10;;
65009;SDS011;51556;50.002;22.014;2022-08-19T05:38:40;13.50;;;10.50;;
65009;SDS011;51556;50.002;22.014;2022-08-19T05:41:07;13.90;;;10.00;;
65009;SDS011;51556;50.002;22.014;2022-08-19T05:43:36;17.70;;;10.40;;
65009;SDS011;51556;50.002;22.014;2022-08-19T05:46:03;19.60;;;10.70;;
65009;SDS011;51556;50.002;22.014;2022-08-19T05:48:33;16.70;;;10.40;;
65009;SDS011;51556;50.002;22.014;2022-08-19T05:51:03;15.90;;;9.90;;
65009;SDS011;51556;50.002;22.014;2022-08-19T05:53:33;15.00;;;10.10;;
65009;SDS011;51556;50.002;22.014;2022-08-19T05:56:03;19.60;;;10.40;;
65009;SDS011;51556;50.002;22.014;2022-08-19T05:58:30;12.10;;;9.20;;
65009;SDS011;51556;50.002;22.014;2022-08-19T06:00:57;14.30;;;9.80;;
65009;SDS011;51556;50.002;22.014;2022-08-19T06:03:23;13.70;;;9.50;;
65009;SDS011;51556;50.002;22.014;2022-08-19T06:05:49;16.10;;;9.40;;
65009;SDS011;51556;50.002;22.014;2022-08-19T06:08:14;11.30;;;8.20;;
65009;SDS011;51556;50.002;22.014;2022-08-19T06:10:40;13.30;;;8.50;;
65009;SDS011;51556;50.002;22.014;2022-08-19T06:13:05;15.20;;;8.40;;
65009;SDS011;51556;50.002;22.014;2022-08-19T06:15:31;15.90;;;8.40;;
65009;SDS011;51556;50.002;22.014;2022-08-19T06:17:56;14.00;;;8.40;;
65009;SDS011;51556;50.002;22.014;2022-08-19T06:20:22;11.80;;;8.10;;
65009;SDS011;51556;50.002;22.014;2022-08-19T06:22:48;15.80;;;8.70;;
65009;SDS011;51556;50.002;22.014;2022-08-19T06:25:15;10.30;;;8.30;;
65009;SDS011;51556;50.002;22.014;2022-08-19T06:27:42;14.00;;;7.80;;
65009;SDS011;51556;50.002;22.014;2022-08-19T06:30:08;13.40;;;7.80;;
65009;SDS011;51556;50.002;22.014;2022-08-19T06:32:35;10.60;;;6.80;;
65009;SDS011;51556;50.002;22.014;2022-08-19T06:35:00;14.50;;;7.00;;
65009;SDS011;51556;50.002;22.014;2022-08-19T06:37:26;10.60;;;6.60;;
65009;SDS011;51556;50.002;22.014;2022-08-19T06:39:51;8.80;;;6.30;;
65009;SDS011;51556;50.002;22.014;2022-08-19T06:42:17;10.20;;;6.50;;
65009;SDS011;51556;50.002;22.014;2022-08-19T06:44:44;7.70;;;6.60;;
65009;SDS011;51556;50.002;22.014;2022-08-19T06:47:14;10.40;;;6.50;;
65009;SDS011;51556;50.002;22.014;2022-08-19T06:49:42;9.80;;;6.90;;
65009;SDS011;51556;50.002;22.014;2022-08-19T06:52:07;9.40;;;7.10;;
65009;SDS011;51556;50.002;22.014;2022-08-19T06:54:35;12.00;;;6.60;;
65009;SDS011;51556;50.002;22.014;2022-08-19T06:57:01;10.90;;;6.40;;
65009;SDS011;51556;50.002;22.014;2022-08-19T06:59:27;9.10;;;6.20;;
65009;SDS011;51556;50.002;22.014;2022-08-19T07:01:58;11.80;;;6.60;;
65009;SDS011;51556;50.002;22.014;2022-08-19T07:04:26;9.10;;;6.80;;
65009;SDS011;51556;50.002;22.014;2022-08-19T07:07:00;9.10;;;6.00;;
65009;SDS011;51556;50.002;22.014;2022-08-19T07:09:33;9.10;;;5.40;;
65009;SDS011;51556;50.002;22.014;2022-08-19T07:11:58;13.50;;;6.60;;
65009;SDS011;51556;50.002;22.014;2022-08-19T07:14:25;12.10;;;6.40;;
65009;SDS011;51556;50.002;22.014;2022-08-19T07:16:53;9.10;;;6.30;;
65009;SDS011;51556;50.002;22.014;2022-08-19T07:19:20;9.80;;;6.10;;
65009;SDS011;51556;50.002;22.014;2022-08-19T07:21:48;11.50;;;6.00;;
65009;SDS011;51556;50.002;22.014;2022-08-19T07:24:19;9.00;;;6.00;;
65009;SDS011;51556;50.002;22.014;2022-08-19T07:26:49;7.20;;;5.90;;
65009;SDS011;51556;50.002;22.014;2022-08-19T07:29:16;10.50;;;6.10;;
65009;SDS011;51556;50.002;22.014;2022-08-19T07:31:43;9.40;;;5.60;;
65009;SDS011;51556;50.002;22.014;2022-08-19T07:34:10;8.70;;;6.50;;
65009;SDS011;51556;50.002;22.014;2022-08-19T07:36:38;8.70;;;6.00;;
65009;SDS011;51556;50.002;22.014;2022-08-19T07:39:10;9.90;;;5.90;;
65009;SDS011;51556;50.002;22.014;2022-08-19T07:41:38;7.70;;;5.90;;
65009;SDS011;51556;50.002;22.014;2022-08-19T07:44:06;8.80;;;5.30;;
65009;SDS011;51556;50.002;22.014;2022-08-19T07:46:33;7.90;;;5.90;;
65009;SDS011;51556;50.002;22.014;2022-08-19T07:49:02;12.90;;;6.10;;
65009;SDS011;51556;50.002;22.014;2022-08-19T07:51:29;8.30;;;5.50;;
65009;SDS011;51556;50.002;22.014;2022-08-19T07:53:55;9.60;;;5.80;;
65009;SDS011;51556;50.002;22.014;2022-08-19T07:56:21;9.60;;;5.30;;
65009;SDS011;51556;50.002;22.014;2022-08-19T07:58:48;8.60;;;5.40;;
65009;SDS011;51556;50.002;22.014;2022-08-19T08:01:22;7.50;;;5.10;;
65009;SDS011;51556;50.002;22.014;2022-08-19T08:03:51;8.50;;;6.00;;
65009;SDS011;51556;50.002;22.014;2022-08-19T08:06:37;6.20;;;5.40;;
65009;SDS011;51556;50.002;22.014;2022-08-19T08:09:26;9.60;;;5.80;;
65009;SDS011;51556;50.002;22.014;2022-08-19T08:11:55;7.80;;;5.90;;
65009;SDS011;51556;50.002;22.014;2022-08-19T08:14:28;6.30;;;5.20;;
65009;SDS011;51556;50.002;22.014;2022-08-19T08:16:55;9.80;;;6.20;;
65009;SDS011;51556;50.002;22.014;2022-08-19T08:19:22;8.00;;;5.40;;
65009;SDS011;51556;50.002;22.014;2022-08-19T08:21:50;7.70;;;5.90;;
65009;SDS011;51556;50.002;22.014;2022-08-19T08:24:16;6.50;;;5.70;;
65009;SDS011;51556;50.002;22.014;2022-08-19T08:26:43;8.30;;;6.00;;
65009;SDS011;51556;50.002;22.014;2022-08-19T08:29:12;7.10;;;5.50;;
65009;SDS011;51556;50.002;22.014;2022-08-19T08:31:40;8.80;;;5.80;;
65009;SDS011;51556;50.002;22.014;2022-08-19T08:34:07;8.20;;;6.00;;
65009;SDS011;51556;50.002;22.014;2022-08-19T08:36:41;10.10;;;6.60;;
65009;SDS011;51556;50.002;22.014;2022-08-19T08:39:10;9.40;;;6.30;;
65009;SDS011;51556;50.002;22.014;2022-08-19T08:41:51;10.90;;;6.50;;
65009;SDS011;51556;50.002;22.014;2022-08-19T08:44:26;11.10;;;6.30;;
65009;SDS011;51556;50.002;22.014;2022-08-19T08:47:03;7.60;;;5.70;;
65009;SDS011;51556;50.002;22.014;2022-08-19T08:52:22;10.30;;;5.80;;
65009;SDS011;51556;50.002;22.014;2022-08-19T08:54:52;11.80;;;6.20;;
65009;SDS011;51556;50.002;22.014;2022-08-19T08:57:26;9.70;;;6.10;;
65009;SDS011;51556;50.002;22.014;2022-08-19T08:59:58;8.90;;;6.10;;
65009;SDS011;51556;50.002;22.014;2022-08-19T09:02:29;9.90;;;6.80;;
65009;SDS011;51556;50.002;22.014;2022-08-19T09:04:54;7.80;;;6.10;;
65009;SDS011;51556;50.002;22.014;2022-08-19T09:16:15;8.70;;;5.70;;
65009;SDS011;51556;50.002;22.014;2022-08-19T09:21:14;9.60;;;5.80;;
65009;SDS011;51556;50.002;22.014;2022-08-19T09:23:41;7.60;;;5.70;;
65009;SDS011;51556;50.002;22.014;2022-08-19T09:26:12;8.90;;;5.60;;
65009;SDS011;51556;50.002;22.014;2022-08-19T09:28:40;7.40;;;5.40;;
65009;SDS011;51556;50.002;22.014;2022-08-19T09:31:12;9.90;;;6.00;;
65009;SDS011;51556;50.002;22.014;2022-08-19T09:33:40;7.40;;;5.80;;
65009;SDS011;51556;50.002;22.014;2022-08-19T09:36:10;6.20;;;5.60;;
65009;SDS011;51556;50.002;22.014;2022-08-19T09:38:38;8.60;;;5.40;;
65009;SDS011;51556;50.002;22.014;2022-08-19T09:41:09;5.90;;;5.00;;
65009;SDS011;51556;50.002;22.014;2022-08-19T09:43:40;6.60;;;5.00;;
65009;SDS011;51556;50.002;22.014;2022-08-19T09:46:07;6.20;;;5.20;;
65009;SDS011;51556;50.002;22.014;2022-08-19T09:48:38;9.00;;;5.40;;
65009;SDS011;51556;50.002;22.014;2022-08-19T09:51:08;6.90;;;5.50;;
65009;SDS011;51556;50.002;22.014;2022-08-19T09:53:38;6.20;;;5.60;;
65009;SDS011;51556;50.002;22.014;2022-08-19T09:56:04;6.00;;;5.40;;
65009;SDS011;51556;50.002;22.014;2022-08-19T09:58:33;7.00;;;5.20;;
65009;SDS011;51556;50.002;22.014;2022-08-19T10:01:00;7.80;;;5.60;;
65009;SDS011;51556;50.002;22.014;2022-08-19T10:03:27;7.60;;;5.80;;
65009;SDS011;51556;50.002;22.014;2022-08-19T10:05:54;7.20;;;5.20;;
65009;SDS011;51556;50.002;22.014;2022-08-19T10:08:22;8.70;;;5.80;;
65009;SDS011;51556;50.002;22.014;2022-08-19T10:10:51;8.00;;;6.00;;
65009;SDS011;51556;50.002;22.014;2022-08-19T10:13:18;8.30;;;5.50;;
65009;SDS011;51556;50.002;22.014;2022-08-19T10:15:47;8.20;;;5.50;;
65009;SDS011;51556;50.002;22.014;2022-08-19T10:18:16;5.80;;;4.80;;
65009;SDS011;51556;50.002;22.014;2022-08-19T10:20:44;6.10;;;5.30;;
65009;SDS011;51556;50.002;22.014;2022-08-19T10:23:10;8.20;;;5.30;;
65009;SDS011;51556;50.002;22.014;2022-08-19T10:25:37;5.50;;;4.90;;
65009;SDS011;51556;50.002;22.014;2022-08-19T10:28:04;5.90;;;5.20;;
65009;SDS011;51556;50.002;22.014;2022-08-19T10:30:32;5.90;;;4.50;;
65009;SDS011;51556;50.002;22.014;2022-08-19T10:32:58;6.10;;;4.50;;
65009;SDS011;51556;50.002;22.014;2022-08-19T10:35:24;4.90;;;4.20;;
65009;SDS011;51556;50.002;22.014;2022-08-19T10:38:04;8.00;;;4.80;;
65009;SDS011;51556;50.002;22.014;2022-08-19T10:40:30;6.20;;;4.50;;
65009;SDS011;51556;50.002;22.014;2022-08-19T10:42:56;5.30;;;4.10;;
65009;SDS011;51556;50.002;22.014;2022-08-19T10:45:22;9.30;;;4.60;;
65009;SDS011;51556;50.002;22.014;2022-08-19T10:47:50;7.50;;;4.80;;
65009;SDS011;51556;50.002;22.014;2022-08-19T10:50:16;4.40;;;4.00;;
65009;SDS011;51556;50.002;22.014;2022-08-19T10:53:03;6.10;;;4.50;;
65009;SDS011;51556;50.002;22.014;2022-08-19T10:55:30;5.60;;;4.30;;
65009;SDS011;51556;50.002;22.014;2022-08-19T10:58:16;5.90;;;4.70;;
65009;SDS011;51556;50.002;22.014;2022-08-19T11:00:52;6.00;;;4.30;;
65009;SDS011;51556;50.002;22.014;2022-08-19T11:03:23;7.50;;;4.50;;
65009;SDS011;51556;50.002;22.014;2022-08-19T11:08:25;7.20;;;4.40;;
65009;SDS011;51556;50.002;22.014;2022-08-19T11:10:52;6.10;;;4.00;;
65009;SDS011;51556;50.002;22.014;2022-08-19T11:13:22;4.60;;;4.10;;
65009;SDS011;51556;50.002;22.014;2022-08-19T11:15:55;6.20;;;3.90;;
65009;SDS011;51556;50.002;22.014;2022-08-19T11:18:22;6.90;;;3.70;;
65009;SDS011;51556;50.002;22.014;2022-08-19T11:20:48;7.20;;;4.00;;
65009;SDS011;51556;50.002;22.014;2022-08-19T11:23:14;5.50;;;3.80;;
65009;SDS011;51556;50.002;22.014;2022-08-19T11:25:39;4.20;;;3.60;;
65009;SDS011;51556;50.002;22.014;2022-08-19T11:28:05;6.00;;;4.00;;
65009;SDS011;51556;50.002;22.014;2022-08-19T11:30:30;5.70;;;3.80;;
65009;SDS011;51556;50.002;22.014;2022-08-19T11:32:56;6.20;;;3.70;;
65009;SDS011;51556;50.002;22.014;2022-08-19T11:35:22;5.80;;;3.60;;
65009;SDS011;51556;50.002;22.014;2022-08-19T11:37:48;6.20;;;4.30;;
65009;SDS011;51556;50.002;22.014;2022-08-19T11:40:14;8.70;;;4.00;;
65009;SDS011;51556;50.002;22.014;2022-08-19T11:42:39;5.50;;;3.70;;
65009;SDS011;51556;50.002;22.014;2022-08-19T11:45:20;4.70;;;3.30;;
65009;SDS011;51556;50.002;22.014;2022-08-19T11:47:46;6.30;;;4.00;;
65009;SDS011;51556;50.002;22.014;2022-08-19T11:50:12;6.60;;;4.10;;
65009;SDS011;51556;50.002;22.014;2022-08-19T11:52:39;6.10;;;4.00;;
65009;SDS011;51556;50.002;22.014;2022-08-19T11:55:05;6.30;;;3.60;;
65009;SDS011;51556;50.002;22.014;2022-08-19T11:57:31;7.40;;;4.00;;
65009;SDS011;51556;50.002;22.014;2022-08-19T11:59:57;5.50;;;3.60;;
65009;SDS011;51556;50.002;22.014;2022-08-19T12:02:23;4.00;;;3.10;;
65009;SDS011;51556;50.002;22.014;2022-08-19T12:04:48;3.50;;;3.00;;
65009;SDS011;51556;50.002;22.014;2022-08-19T12:07:14;5.20;;;3.20;;
65009;SDS011;51556;50.002;22.014;2022-08-19T12:09:40;6.30;;;3.60;;
65009;SDS011;51556;50.002;22.014;2022-08-19T12:12:06;5.50;;;3.00;;
65009;SDS011;51556;50.002;22.014;2022-08-19T12:14:32;5.50;;;3.60;;
65009;SDS011;51556;50.002;22.014;2022-08-19T12:16:57;5.50;;;3.60;;
65009;SDS011;51556;50.002;22.014;2022-08-19T12:19:23;3.70;;;3.00;;
65009;SDS011;51556;50.002;22.014;2022-08-19T12:21:50;6.60;;;3.30;;
65009;SDS011;51556;50.002;22.014;2022-08-19T12:24:22;3.30;;;3.00;;
65009;SDS011;51556;50.002;22.014;2022-08-19T12:26:50;4.10;;;3.60;;
65009;SDS011;51556;50.002;22.014;2022-08-19T12:29:16;4.40;;;3.60;;
65009;SDS011;51556;50.002;22.014;2022-08-19T12:31:41;4.20;;;3.60;;
65009;SDS011;51556;50.002;22.014;2022-08-19T12:34:07;5.90;;;3.20;;
65009;SDS011;51556;50.002;22.014;2022-08-19T12:36:33;3.60;;;3.20;;
65009;SDS011;51556;50.002;22.014;2022-08-19T12:38:59;4.00;;;3.40;;
65009;SDS011;51556;50.002;22.014;2022-08-19T12:41:25;7.00;;;3.90;;
65009;SDS011;51556;50.002;22.014;2022-08-19T12:43:51;6.40;;;3.30;;
65009;SDS011;51556;50.002;22.014;2022-08-19T12:46:17;6.30;;;3.50;;
65009;SDS011;51556;50.002;22.014;2022-08-19T12:48:44;5.50;;;4.00;;
65009;SDS011;51556;50.002;22.014;2022-08-19T12:51:11;5.90;;;3.50;;
65009;SDS011;51556;50.002;22.014;2022-08-19T12:53:40;6.40;;;3.80;;
65009;SDS011;51556;50.002;22.014;2022-08-19T12:56:08;8.40;;;3.90;;
65009;SDS011;51556;50.002;22.014;2022-08-19T12:58:36;7.90;;;4.10;;
65009;SDS011;51556;50.002;22.014;2022-08-19T13:01:06;5.30;;;4.10;;
65009;SDS011;51556;50.002;22.014;2022-08-19T13:03:39;8.40;;;3.30;;
65009;SDS011;51556;50.002;22.014;2022-08-19T13:06:05;4.80;;;3.50;;
65009;SDS011;51556;50.002;22.014;2022-08-19T13:08:32;4.50;;;3.30;;
65009;SDS011;51556;50.002;22.014;2022-08-19T13:10:57;8.40;;;3.90;;
65009;SDS011;51556;50.002;22.014;2022-08-19T13:13:31;7.00;;;3.80;;
65009;SDS011;51556;50.002;22.014;2022-08-19T13:15:59;3.60;;;3.30;;
65009;SDS011;51556;50.002;22.014;2022-08-19T13:18:29;5.60;;;3.60;;
65009;SDS011;51556;50.002;22.014;2022-08-19T13:20:56;5.40;;;3.50;;
65009;SDS011;51556;50.002;22.014;2022-08-19T13:23:22;6.00;;;3.10;;
65009;SDS011;51556;50.002;22.014;2022-08-19T13:25:57;6.80;;;3.40;;
65009;SDS011;51556;50.002;22.014;2022-08-19T13:28:24;5.40;;;3.60;;
65009;SDS011;51556;50.002;22.014;2022-08-19T13:30:50;7.20;;;3.10;;
65009;SDS011;51556;50.002;22.014;2022-08-19T13:33:34;7.10;;;3.10;;
65009;SDS011;51556;50.002;22.014;2022-08-19T13:35:59;7.90;;;3.60;;
65009;SDS011;51556;50.002;22.014;2022-08-19T13:38:26;10.00;;;3.60;;
65009;SDS011;51556;50.002;22.014;2022-08-19T13:40:53;4.70;;;3.20;;
65009;SDS011;51556;50.002;22.014;2022-08-19T13:43:21;7.40;;;3.60;;
65009;SDS011;51556;50.002;22.014;2022-08-19T13:45:48;5.90;;;3.30;;
65009;SDS011;51556;50.002;22.014;2022-08-19T13:48:18;5.90;;;3.40;;
65009;SDS011;51556;50.002;22.014;2022-08-19T13:50:44;5.80;;;3.50;;
65009;SDS011;51556;50.002;22.014;2022-08-19T13:53:12;6.70;;;3.40;;
65009;SDS011;51556;50.002;22.014;2022-08-19T13:55:38;5.00;;;3.20;;
65009;SDS011;51556;50.002;22.014;2022-08-19T13:58:05;6.70;;;3.50;;
65009;SDS011;51556;50.002;22.014;2022-08-19T14:00:33;5.00;;;3.00;;
65009;SDS011;51556;50.002;22.014;2022-08-19T14:03:01;4.20;;;3.00;;
65009;SDS011;51556;50.002;22.014;2022-08-19T14:05:28;5.20;;;2.80;;
65009;SDS011;51556;50.002;22.014;2022-08-19T14:07:55;5.90;;;3.60;;
65009;SDS011;51556;50.002;22.014;2022-08-19T14:10:22;5.30;;;3.30;;
65009;SDS011;51556;50.002;22.014;2022-08-19T14:12:49;9.10;;;3.20;;
65009;SDS011;51556;50.002;22.014;2022-08-19T14:15:17;6.90;;;3.60;;
65009;SDS011;51556;50.002;22.014;2022-08-19T14:17:43;5.20;;;3.20;;
65009;SDS011;51556;50.002;22.014;2022-08-19T14:20:12;8.90;;;3.40;;
65009;SDS011;51556;50.002;22.014;2022-08-19T14:22:41;7.60;;;3.40;;
65009;SDS011;51556;50.002;22.014;2022-08-19T14:25:08;5.90;;;3.20;;
65009;SDS011;51556;50.002;22.014;2022-08-19T14:27:37;5.80;;;2.80;;
65009;SDS011;51556;50.002;22.014;2022-08-19T14:30:06;8.30;;;3.70;;
65009;SDS011;51556;50.002;22.014;2022-08-19T14:32:34;6.70;;;3.30;;
65009;SDS011;51556;50.002;22.014;2022-08-19T14:35:00;4.50;;;3.10;;
65009;SDS011;51556;50.002;22.014;2022-08-19T14:37:27;6.40;;;3.00;;
65009;SDS011;51556;50.002;22.014;2022-08-19T14:39:52;6.00;;;3.30;;
65009;SDS011;51556;50.002;22.014;2022-08-19T14:42:18;4.60;;;2.70;;
65009;SDS011;51556;50.002;22.014;2022-08-19T14:44:44;12.20;;;3.50;;
65009;SDS011;51556;50.002;22.014;2022-08-19T14:47:10;7.00;;;2.90;;
65009;SDS011;51556;50.002;22.014;2022-08-19T14:49:36;5.70;;;3.10;;
65009;SDS011;51556;50.002;22.014;2022-08-19T14:52:03;6.10;;;3.90;;
65009;SDS011;51556;50.002;22.014;2022-08-19T14:54:29;5.40;;;3.50;;